Terminal Aerodrome Forecast
Issued by NWS

Current Version | Previous Version | Text Only | Print | Product List | Glossary On
Versions: 1 2 3 4 5 6 7 8 9 10 11 12 13 14 15 16
558
FTUS43 KEAX 181738
TAFMKC
TAF
KMKC 181738Z 1818/1918 18018G30KT P6SM BKN150
     FM190000 19015KT P6SM BKN027 WS020/21045KT
     FM190500 20016KT 6SM -DZ BR OVC020 WS020/21045KT
     FM191500 22012KT 6SM BR VCSH OVC019=

USA.gov is the U.S. government's official web portal to all federal, state and local government web resources and services.